Time;durP1;ratioP1;P1;durP2;ratioP2;P2;SDS_P1;SDS_P2;PMS_P1;PMS_P2;Temp;Humidity;BMP_temperature;BMP_pressure;BME280_temperature;BME280_humidity;BME280_pressure;Samples;Min_cycle;Max_cycle;Signal;HPM_P1;HPM_P2
2022/09/13 00:02:06;;;;;;;;;;;;;;;19.32;70.08;100935.06;4967046;28;19948;-62
2022/09/13 00:04:31;;;;;;;;;;;;;;;19.31;70.17;100935.97;4969207;28;19914;-63
2022/09/13 00:06:57;;;;;;;;;;;;;;;19.31;70.02;100936.84;4965698;28;19921;-63
2022/09/13 00:09:22;;;;;;;;;;;;;;;19.29;70.13;100942.16;4968303;28;19967;-62
2022/09/13 00:11:47;;;;;;;;;;;;;;;19.27;70.01;100946.56;4966469;28;20381;-63
2022/09/13 00:14:12;;;;;;;;;;;;;;;19.27;69.96;100943.91;4968561;28;19965;-63
2022/09/13 00:16:37;;;;;;;;;;;;;;;19.26;70.13;100947.47;4973257;28;19910;-63
2022/09/13 00:19:03;;;;;;;;;;;;;;;19.26;70.09;100946.56;4972300;28;20489;-62
2022/09/13 00:21:28;;;;;;;;;;;;;;;19.24;70.51;100936.03;4968602;28;19929;-62
2022/09/13 00:23:53;;;;;;;;;;;;;;;19.24;70.24;100932.53;4951955;28;19976;-62
2022/09/13 00:26:20;;;;;;;;;;;;;;;19.23;70.61;100922.84;4973219;28;20636;-64
2022/09/13 00:28:53;;;;;;;;;;;;;;;19.21;70.69;100928.13;4969844;28;19917;-66
2022/09/13 00:31:19;;;;;;;;;;;;;;;19.21;70.63;100922.84;4968305;28;20061;-66
2022/09/13 00:33:45;;;;;;;;;;;;;;;19.21;70.56;100922.84;4968253;28;20035;-65
2022/09/13 00:36:10;;;;;;;;;;;;;;;19.20;70.43;100923.72;4973214;28;20357;-65
2022/09/13 00:38:36;;;;;;;;;;;;;;;19.19;70.52;100919.38;4971077;28;19968;-65
2022/09/13 00:41:03;;;;;;;;;;;;;;;19.19;70.74;100915.81;4971810;28;20293;-65
2022/09/13 00:43:48;;;;;;;;;;;;;;;19.17;70.29;100921.13;4971820;28;19914;-65
2022/09/13 00:46:19;;;;;;;;;;;;;;;19.17;70.47;100912.34;4970874;28;19910;-66
2022/09/13 00:48:45;;;;;;;;;;;;;;;19.15;70.37;100908.81;4971006;28;20313;-66
2022/09/13 00:51:11;;;;;;;;;;;;;;;19.15;70.15;100911.47;4972797;28;19922;-65
2022/09/13 00:53:38;;;;;;;;;;;;;;;19.14;70.31;100907.97;4969898;28;19921;-65
2022/09/13 00:56:21;;;;;;;;;;;;;;;19.13;70.09;100900.91;4965218;28;19964;-65
2022/09/13 00:58:59;;;;;;;;;;;;;;;19.13;70.35;100897.41;4969499;28;19914;-62
2022/09/13 01:01:26;;;;;;;;;;;;;;;19.11;70.30;100895.66;4970440;28;19914;-62
2022/09/13 01:03:51;;;;;;;;;;;;;;;19.10;70.03;100899.22;4968866;28;19917;-63
2022/09/13 01:06:23;;;;;;;;;;;;;;;19.11;69.97;100894.78;4968636;28;19920;-63
2022/09/13 01:08:51;;;;;;;;;;;;;;;19.08;70.19;100898.34;4972304;28;19928;-63
2022/09/13 01:11:26;;;;;;;;;;;;;;;19.08;69.87;100900.13;4967555;28;19941;-63
2022/09/13 01:13:53;;;;;;;;;;;;;;;19.08;70.03;100895.69;4970541;28;19973;-63
2022/09/13 01:16:18;;;;;;;;;;;;;;;19.05;69.66;100890.44;4972408;28;19945;-62
2022/09/13 01:18:44;;;;;;;;;;;;;;;19.05;69.89;100895.72;4969744;28;19964;-63
2022/09/13 01:21:21;;;;;;;;;;;;;;;19.06;70.05;100886.94;4968180;28;19921;-63
2022/09/13 01:24:09;;;;;;;;;;;;;;;19.05;70.04;100890.44;4963181;28;19917;-63
2022/09/13 01:26:46;;;;;;;;;;;;;;;19.05;70.09;100894.88;4939806;28;20452;-63
2022/09/13 01:29:23;;;;;;;;;;;;;;;19.04;70.18;100893.97;4960140;28;19918;-62
2022/09/13 01:31:58;;;;;;;;;;;;;;;19.03;70.24;100892.25;4958448;28;21277;-62
2022/09/13 01:34:44;;;;;;;;;;;;;;;19.02;70.31;100890.50;4964383;28;19918;-62
2022/09/13 01:37:29;;;;;;;;;;;;;;;19.03;70.25;100896.63;4972274;28;19954;-62
2022/09/13 01:40:15;;;;;;;;;;;;;;;19.02;70.58;100894.91;4971331;28;19922;-62
2022/09/13 01:42:59;;;;;;;;;;;;;;;18.99;70.60;100890.53;4968809;28;19922;-63
2022/09/13 01:45:35;;;;;;;;;;;;;;;18.98;70.55;100888.75;4964798;28;19957;-63
2022/09/13 01:48:13;;;;;;;;;;;;;;;18.97;70.34;100886.16;4971337;28;20069;-63
2022/09/13 01:50:41;;;;;;;;;;;;;;;18.96;70.49;100884.38;4966813;28;19918;-63
2022/09/13 01:53:14;;;;;;;;;;;;;;;18.93;70.36;100878.25;4971895;28;19929;-63
2022/09/13 01:55:54;;;;;;;;;;;;;;;18.93;70.59;100880.91;4972037;28;19914;-63
2022/09/13 01:58:28;;;;;;;;;;;;;;;18.93;70.59;100880.03;4971325;28;19914;-63
2022/09/13 02:00:59;;;;;;;;;;;;;;;18.92;70.42;100878.28;4969459;28;19965;-63
2022/09/13 02:03:28;;;;;;;;;;;;;;;18.91;70.48;100881.78;4967613;28;19914;-63
2022/09/13 02:06:09;;;;;;;;;;;;;;;18.89;70.65;100878.31;4969588;28;19917;-63
2022/09/13 02:08:39;;;;;;;;;;;;;;;18.88;71.10;100873.91;4969169;28;19963;-63
2022/09/13 02:11:12;;;;;;;;;;;;;;;18.87;71.01;100870.41;4969390;28;19913;-63
2022/09/13 02:13:45;;;;;;;;;;;;;;;18.85;71.12;100877.41;4970017;28;19918;-63
2022/09/13 02:16:14;;;;;;;;;;;;;;;18.85;71.20;100877.41;4965994;28;19914;-63
2022/09/13 02:18:40;;;;;;;;;;;;;;;18.85;71.00;100885.34;4970722;28;19914;-63
2022/09/13 02:21:13;;;;;;;;;;;;;;;18.85;70.94;100877.41;4971119;28;19914;-62
2022/09/13 02:23:48;;;;;;;;;;;;;;;18.85;71.08;100887.13;4970998;28;19914;-63
2022/09/13 02:26:14;;;;;;;;;;;;;;;18.84;71.07;100886.25;4966244;28;19918;-62
2022/09/13 02:28:46;;;;;;;;;;;;;;;18.84;71.10;100890.63;4965859;28;19925;-63
2022/09/13 02:31:14;;;;;;;;;;;;;;;18.84;71.17;100878.34;4967418;28;19914;-63
2022/09/13 02:33:43;;;;;;;;;;;;;;;18.84;71.27;100886.25;4968337;28;20305;-63
2022/09/13 02:36:11;;;;;;;;;;;;;;;18.83;71.54;100887.13;4967619;28;19965;-64
2022/09/13 02:38:43;;;;;;;;;;;;;;;18.84;71.56;100882.72;4966284;28;19918;-66
2022/09/13 02:41:18;;;;;;;;;;;;;;;18.83;71.25;100886.25;4950684;28;19929;-66
2022/09/13 02:43:47;;;;;;;;;;;;;;;18.83;71.26;100888.88;4970798;28;19914;-66
2022/09/13 02:46:12;;;;;;;;;;;;;;;18.83;71.36;100899.44;4966048;28;20321;-65
2022/09/13 02:48:46;;;;;;;;;;;;;;;18.80;71.18;100895.09;4965368;28;19914;-65
2022/09/13 02:51:16;;;;;;;;;;;;;;;18.80;71.21;100900.38;4966732;28;19917;-65
2022/09/13 02:53:50;;;;;;;;;;;;;;;18.79;71.28;100898.59;4969826;28;19921;-65
2022/09/13 02:56:22;;;;;;;;;;;;;;;18.79;71.22;100910.94;4967061;28;19925;-65
2022/09/13 02:58:47;;;;;;;;;;;;;;;18.75;71.29;100904.81;4963415;28;20021;-65
2022/09/13 03:01:13;;;;;;;;;;;;;;;18.75;71.12;100907.44;4965893;28;20017;-65
2022/09/13 03:03:38;;;;;;;;;;;;;;;18.74;71.11;100903.03;4968380;28;19921;-65
2022/09/13 03:06:03;;;;;;;;;;;;;;;18.72;71.00;100904.84;4969245;28;19921;-66
2022/09/13 03:08:29;;;;;;;;;;;;;;;18.71;70.83;100900.44;4969948;28;19920;-62
2022/09/13 03:11:17;;;;;;;;;;;;;;;18.69;70.80;100897.81;4965798;28;19918;-62
2022/09/13 03:13:48;;;;;;;;;;;;;;;18.69;70.84;100897.81;4961103;28;20377;-62
2022/09/13 03:16:34;;;;;;;;;;;;;;;18.69;70.74;100891.66;4970324;28;20364;-62
2022/09/13 03:19:16;;;;;;;;;;;;;;;18.68;71.01;100889.91;4922051;28;20365;-62
2022/09/13 03:21:50;;;;;;;;;;;;;;;18.69;71.03;100894.31;4966266;28;19914;-62
2022/09/13 03:24:23;;;;;;;;;;;;;;;18.69;71.38;100887.25;4949639;28;19914;-62
2022/09/13 03:27:07;;;;;;;;;;;;;;;18.69;71.48;100889.91;4968402;28;19914;-63
2022/09/13 03:29:32;;;;;;;;;;;;;;;18.69;71.33;100881.97;4966559;28;19921;-62
2022/09/13 03:32:19;;;;;;;;;;;;;;;18.70;71.43;100882.88;4968071;28;20026;-62
2022/09/13 03:34:44;;;;;;;;;;;;;;;18.70;71.48;100882.88;4965563;28;20377;-62
2022/09/13 03:37:09;;;;;;;;;;;;;;;18.69;71.82;100883.75;4965918;28;19925;-65
2022/09/13 03:39:43;;;;;;;;;;;;;;;18.70;71.77;100885.50;4966422;28;19964;-65
2022/09/13 03:42:13;;;;;;;;;;;;;;;18.69;71.83;100887.25;4967613;28;19920;-65
2022/09/13 03:44:41;;;;;;;;;;;;;;;18.68;71.57;100880.22;4970187;28;19918;-65
2022/09/13 03:47:07;;;;;;;;;;;;;;;18.69;71.74;100875.84;4965149;28;19973;-65
2022/09/13 03:49:35;;;;;;;;;;;;;;;18.67;71.87;100878.50;4966077;28;19989;-65
2022/09/13 03:52:01;;;;;;;;;;;;;;;18.68;71.42;100874.94;4968900;28;19925;-65
2022/09/13 03:54:28;;;;;;;;;;;;;;;18.67;71.65;100872.31;4972021;28;19926;-65
2022/09/13 03:57:12;;;;;;;;;;;;;;;18.67;71.51;100872.31;4971621;28;19918;-65
2022/09/13 03:59:40;;;;;;;;;;;;;;;18.67;71.66;100883.75;4972682;28;19997;-66
2022/09/13 04:02:08;;;;;;;;;;;;;;;18.67;71.63;100882.88;4971943;28;19945;-65
2022/09/13 04:04:33;;;;;;;;;;;;;;;18.65;71.92;100874.97;4969524;28;19918;-65
2022/09/13 04:07:02;;;;;;;;;;;;;;;18.65;71.88;100871.47;4971778;28;19973;-62
2022/09/13 04:09:27;;;;;;;;;;;;;;;18.63;71.48;100878.53;4971415;28;20013;-62
2022/09/13 04:11:52;;;;;;;;;;;;;;;18.63;71.58;100889.09;4971647;28;20348;-63
2022/09/13 04:14:17;;;;;;;;;;;;;;;18.61;71.52;100894.38;4971088;28;19917;-62
2022/09/13 04:16:43;;;;;;;;;;;;;;;18.60;71.70;100896.13;4970159;28;19921;-62
2022/09/13 04:19:09;;;;;;;;;;;;;;;18.60;71.78;100909.31;4972774;28;19918;-62
2022/09/13 04:21:35;;;;;;;;;;;;;;;18.59;71.93;100907.56;4971659;28;19920;-62
2022/09/13 04:24:00;;;;;;;;;;;;;;;18.57;71.61;100909.34;4971670;28;19914;-62
2022/09/13 04:26:25;;;;;;;;;;;;;;;18.56;71.69;100910.22;4971842;28;19924;-62
2022/09/13 04:28:53;;;;;;;;;;;;;;;18.56;71.80;100897.03;4972854;28;20523;-62
2022/09/13 04:31:19;;;;;;;;;;;;;;;18.56;71.48;100909.38;4966055;28;19914;-62
2022/09/13 04:33:44;;;;;;;;;;;;;;;18.54;71.75;100919.94;4966264;28;19932;-62
2022/09/13 04:36:09;;;;;;;;;;;;;;;18.53;71.76;100928.75;4970437;28;19917;-63
2022/09/13 04:38:36;;;;;;;;;;;;;;;18.52;71.66;100924.34;4972274;28;19914;-62
2022/09/13 04:41:01;;;;;;;;;;;;;;;18.50;71.50;100915.56;4971205;28;19913;-63
2022/09/13 04:43:26;;;;;;;;;;;;;;;18.46;71.72;100921.75;4969761;28;20467;-63
2022/09/13 04:45:52;;;;;;;;;;;;;;;18.45;71.66;100920.03;4970225;28;19957;-62
2022/09/13 04:48:17;;;;;;;;;;;;;;;18.43;71.72;100927.06;4967427;28;20353;-65
2022/09/13 04:50:43;;;;;;;;;;;;;;;18.42;71.68;100915.66;4972882;28;19913;-66
2022/09/13 04:53:08;;;;;;;;;;;;;;;18.41;71.59;100924.44;4972053;28;19922;-65
2022/09/13 04:55:35;;;;;;;;;;;;;;;18.40;71.90;100924.44;4970809;28;20052;-66
2022/09/13 04:58:01;;;;;;;;;;;;;;;18.40;71.85;100925.31;4970439;28;19989;-65
2022/09/13 05:00:27;;;;;;;;;;;;;;;18.40;71.78;100932.38;4969363;28;19922;-66
2022/09/13 05:02:55;;;;;;;;;;;;;;;18.38;71.97;100921.81;4970722;28;19914;-66
2022/09/13 05:05:20;;;;;;;;;;;;;;;18.38;71.85;100931.50;4969720;28;20448;-66
2022/09/13 05:07:49;;;;;;;;;;;;;;;18.38;71.98;100928.88;4972525;28;19920;-65
2022/09/13 05:10:14;;;;;;;;;;;;;;;18.37;71.88;100924.47;4971423;28;19945;-65
2022/09/13 05:12:39;;;;;;;;;;;;;;;18.36;71.91;100931.50;4969309;28;20449;-65
2022/09/13 05:15:05;;;;;;;;;;;;;;;18.37;71.94;100921.84;4968349;28;19977;-65
2022/09/13 05:17:31;;;;;;;;;;;;;;;18.35;72.20;100923.59;4967890;28;20297;-62
2022/09/13 05:19:56;;;;;;;;;;;;;;;18.35;72.27;100928.88;4969177;28;19918;-62
2022/09/13 05:22:21;;;;;;;;;;;;;;;18.35;72.22;100928.88;4970370;28;20393;-63
2022/09/13 05:24:46;;;;;;;;;;;;;;;18.34;72.32;100921.88;4965257;28;22076;-62
2022/09/13 05:27:11;;;;;;;;;;;;;;;18.32;72.40;100923.63;4966892;28;19918;-62
2022/09/13 05:29:37;;;;;;;;;;;;;;;18.33;72.81;100930.66;4972942;28;20016;-62
2022/09/13 05:32:03;;;;;;;;;;;;;;;18.31;72.15;100924.53;4968099;28;20408;-62
2022/09/13 05:34:28;;;;;;;;;;;;;;;18.29;72.55;100935.06;4967989;28;19969;-62
2022/09/13 05:36:53;;;;;;;;;;;;;;;18.31;72.60;100932.44;4968362;28;19918;-63
2022/09/13 05:39:20;;;;;;;;;;;;;;;18.29;72.57;100935.06;4968773;28;19914;-63
2022/09/13 05:41:46;;;;;;;;;;;;;;;18.28;72.88;100938.59;4968167;28;19914;-62
2022/09/13 05:44:11;;;;;;;;;;;;;;;18.28;72.71;100937.72;4968263;28;19924;-62
2022/09/13 05:46:36;;;;;;;;;;;;;;;18.27;72.82;100933.34;4964925;28;19914;-65
2022/09/13 05:49:01;;;;;;;;;;;;;;;18.27;72.85;100941.25;4968851;28;20290;-65
2022/09/13 05:51:27;;;;;;;;;;;;;;;18.26;73.08;100943.00;4968742;28;19918;-65
2022/09/13 05:53:53;;;;;;;;;;;;;;;18.26;73.07;100940.38;4969605;28;19914;-65
2022/09/13 05:56:28;;;;;;;;;;;;;;;18.24;73.22;100939.50;4951410;28;19973;-66
2022/09/13 05:58:54;;;;;;;;;;;;;;;18.24;73.34;100943.00;4970820;28;19921;-65
2022/09/13 06:01:23;;;;;;;;;;;;;;;18.24;73.20;100945.66;4966473;28;19918;-65
2022/09/13 06:03:58;;;;;;;;;;;;;;;18.24;73.54;100943.00;4968961;28;19914;-66
2022/09/13 06:06:23;;;;;;;;;;;;;;;18.25;73.47;100944.78;4968518;28;19957;-66
2022/09/13 06:08:55;;;;;;;;;;;;;;;18.25;73.42;100939.50;4970719;28;19948;-65
2022/09/13 06:11:21;;;;;;;;;;;;;;;18.25;73.57;100936.84;4970436;28;19918;-66
2022/09/13 06:13:46;;;;;;;;;;;;;;;18.26;73.54;100935.09;4930633;28;1085578;-65
2022/09/13 06:16:12;;;;;;;;;;;;;;;18.26;73.47;100935.09;4966289;28;19987;-65
2022/09/13 06:18:41;;;;;;;;;;;;;;;18.27;73.68;100941.25;4966983;28;19910;-63
2022/09/13 06:21:07;;;;;;;;;;;;;;;18.27;73.75;100941.25;4970254;28;19929;-63
2022/09/13 06:23:33;;;;;;;;;;;;;;;18.25;73.90;100942.13;4965169;28;19914;-62
2022/09/13 06:25:59;;;;;;;;;;;;;;;18.27;73.84;100933.34;4960440;28;19973;-62
2022/09/13 06:28:24;;;;;;;;;;;;;;;18.26;73.70;100932.44;4950144;28;19917;-62
2022/09/13 06:30:50;;;;;;;;;;;;;;;18.28;74.15;100937.72;4965663;28;19914;-63
2022/09/13 06:33:15;;;;;;;;;;;;;;;18.28;74.01;100930.69;4959160;28;19922;-62
2022/09/13 06:35:40;;;;;;;;;;;;;;;18.29;74.28;100940.34;4963863;28;19949;-62
2022/09/13 06:38:05;;;;;;;;;;;;;;;18.31;74.32;100935.09;4935435;28;21728;-62
2022/09/13 06:40:31;;;;;;;;;;;;;;;18.32;74.77;100928.91;4969761;28;20011;-62
2022/09/13 06:42:56;;;;;;;;;;;;;;;18.33;74.73;100922.75;4968264;28;19913;-63
2022/09/13 06:45:21;;;;;;;;;;;;;;;18.33;74.73;100931.53;4969996;28;20000;-63
2022/09/13 06:47:47;;;;;;;;;;;;;;;18.35;75.16;100928.88;4967393;28;19913;-65
2022/09/13 06:50:12;;;;;;;;;;;;;;;18.37;75.33;100927.13;4963765;28;19914;-65
2022/09/13 06:52:37;;;;;;;;;;;;;;;18.38;75.43;100932.38;4947399;28;20389;-66
2022/09/13 06:55:03;;;;;;;;;;;;;;;18.39;75.29;100927.97;4967357;28;20185;-66
2022/09/13 06:57:31;;;;;;;;;;;;;;;18.39;75.46;100930.59;4969445;28;19925;-66
2022/09/13 06:59:56;;;;;;;;;;;;;;;18.41;75.55;100939.41;4970406;28;19953;-66
2022/09/13 07:02:23;;;;;;;;;;;;;;;18.42;75.72;100927.94;4967243;28;19946;-65
2022/09/13 07:04:48;;;;;;;;;;;;;;;18.43;75.58;100932.34;4961903;28;19964;-65
2022/09/13 07:07:14;;;;;;;;;;;;;;;18.46;75.73;100926.16;4964234;28;19922;-66
2022/09/13 07:09:41;;;;;;;;;;;;;;;18.46;75.68;100931.44;4966680;28;19913;-65
2022/09/13 07:12:06;;;;;;;;;;;;;;;18.46;75.56;100932.31;4965182;28;19928;-64
2022/09/13 07:14:31;;;;;;;;;;;;;;;18.48;75.72;100933.19;4968390;28;19922;-66
2022/09/13 07:16:56;;;;;;;;;;;;;;;18.49;75.84;100931.41;4966755;28;19918;-62
2022/09/13 07:19:23;;;;;;;;;;;;;;;18.49;75.90;100932.28;4949763;28;19918;-62
2022/09/13 07:21:49;;;;;;;;;;;;;;;18.52;75.85;100931.38;4970813;28;20389;-62
2022/09/13 07:24:15;;;;;;;;;;;;;;;18.54;76.01;100934.91;4964535;28;19968;-63
2022/09/13 07:26:40;;;;;;;;;;;;;;;18.55;76.11;100932.25;4967240;28;19918;-63
2022/09/13 07:29:07;;;;;;;;;;;;;;;18.58;76.42;100936.59;4961653;28;20337;-63
2022/09/13 07:31:33;;;;;;;;;;;;;;;18.60;76.51;100941.00;4966227;28;19921;-63
2022/09/13 07:34:03;;;;;;;;;;;;;;;18.62;76.11;100938.34;4969938;28;20312;-63
2022/09/13 07:36:29;;;;;;;;;;;;;;;18.63;76.27;100937.47;4970887;28;19961;-63
2022/09/13 07:38:54;;;;;;;;;;;;;;;18.66;76.30;100949.75;4970264;28;19973;-63
2022/09/13 07:41:21;;;;;;;;;;;;;;;18.68;76.49;100950.63;4966539;28;19921;-63
2022/09/13 07:43:46;;;;;;;;;;;;;;;18.71;76.82;100947.94;4971117;28;19972;-63
2022/09/13 07:46:13;;;;;;;;;;;;;;;18.74;76.35;100958.47;4962304;28;20365;-63
2022/09/13 07:48:39;;;;;;;;;;;;;;;18.77;77.00;100953.19;4960855;28;20297;-63
2022/09/13 07:51:12;;;;;;;;;;;;;;;18.80;76.71;100955.81;4961867;28;19932;-63
2022/09/13 07:53:37;;;;;;;;;;;;;;;18.83;76.77;100955.78;4961043;28;20013;-63
2022/09/13 07:56:03;;;;;;;;;;;;;;;18.87;76.93;100954.00;4960973;28;20001;-63
2022/09/13 07:58:29;;;;;;;;;;;;;;;18.91;77.15;100971.56;4962393;28;19922;-66
2022/09/13 08:00:57;;;;;;;;;;;;;;;18.93;77.08;100962.75;4964494;28;19922;-66
2022/09/13 08:03:22;;;;;;;;;;;;;;;18.96;77.10;100967.13;4962220;28;19922;-66
2022/09/13 08:05:47;;;;;;;;;;;;;;;19.01;76.89;100967.09;4961682;28;19921;-66
2022/09/13 08:08:12;;;;;;;;;;;;;;;19.04;77.14;100960.00;4962362;28;20576;-66
2022/09/13 08:10:38;;;;;;;;;;;;;;;19.07;77.13;100954.72;4960007;28;19914;-66
2022/09/13 08:13:03;;;;;;;;;;;;;;;19.10;77.05;100962.59;4966977;28;20008;-66
2022/09/13 08:15:28;;;;;;;;;;;;;;;19.16;77.30;100963.41;4961241;28;20369;-65
2022/09/13 08:17:53;;;;;;;;;;;;;;;19.18;77.21;100962.50;4960981;28;20297;-65
2022/09/13 08:20:19;;;;;;;;;;;;;;;19.23;77.38;100966.00;4961459;28;20388;-66
2022/09/13 08:22:44;;;;;;;;;;;;;;;19.27;77.31;100961.53;4949986;28;19925;-66
2022/09/13 08:25:10;;;;;;;;;;;;;;;19.32;77.50;100962.38;4962696;28;20393;-66
2022/09/13 08:27:35;;;;;;;;;;;;;;;19.37;77.41;100971.13;4964128;28;19917;-63
2022/09/13 08:30:01;;;;;;;;;;;;;;;19.42;77.44;100968.41;4964528;28;19914;-62
2022/09/13 08:32:26;;;;;;;;;;;;;;;19.47;78.31;100971.91;4969810;28;20370;-62
2022/09/13 08:34:52;;;;;;;;;;;;;;;19.53;77.76;100981.53;4967917;28;19929;-62
2022/09/13 08:37:17;;;;;;;;;;;;;;;19.58;78.00;100979.69;4970712;28;19969;-62
2022/09/13 08:39:42;;;;;;;;;;;;;;;19.62;78.14;100984.94;4973846;28;19914;-62
2022/09/13 08:42:07;;;;;;;;;;;;;;;19.69;78.53;100982.22;4973732;28;19914;-62
2022/09/13 08:44:34;;;;;;;;;;;;;;;19.74;78.42;100983.03;4972579;28;19914;-62
2022/09/13 08:47:19;;;;;;;;;;;;;;;19.81;78.35;100979.44;4973879;28;20013;-62
2022/09/13 08:49:46;;;;;;;;;;;;;;;19.87;78.54;100984.69;4972937;28;19918;-62
2022/09/13 08:52:12;;;;;;;;;;;;;;;19.94;78.64;100982.81;4973492;28;19918;-62
2022/09/13 08:54:37;;;;;;;;;;;;;;;20.00;78.32;100979.22;4973410;28;19968;-62
2022/09/13 08:57:10;;;;;;;;;;;;;;;20.05;78.76;100983.56;4973606;28;19925;-65
2022/09/13 08:59:45;;;;;;;;;;;;;;;20.14;78.48;100985.19;4972644;28;19945;-65
2022/09/13 09:02:13;;;;;;;;;;;;;;;20.19;78.40;100980.72;4973101;28;19914;-65
2022/09/13 09:04:45;;;;;;;;;;;;;;;20.28;78.81;100974.44;4973399;28;20275;-66
2022/09/13 09:07:19;;;;;;;;;;;;;;;20.36;78.15;100969.00;4973259;28;19918;-65
2022/09/13 09:09:48;;;;;;;;;;;;;;;20.43;78.07;100970.66;4974118;28;19917;-65
2022/09/13 09:12:16;;;;;;;;;;;;;;;20.50;78.51;100967.03;4971836;28;19918;-65
2022/09/13 09:14:45;;;;;;;;;;;;;;;20.59;78.28;100955.41;4973728;28;19921;-65
2022/09/13 09:17:15;;;;;;;;;;;;;;;20.66;78.12;100951.78;4973173;28;19914;-65
2022/09/13 09:19:42;;;;;;;;;;;;;;;20.74;78.28;100952.56;4971977;28;19944;-65
2022/09/13 09:22:18;;;;;;;;;;;;;;;20.82;78.01;100957.72;4972619;28;19917;-65
2022/09/13 09:24:49;;;;;;;;;;;;;;;20.88;77.43;100952.31;4970536;28;19930;-65
2022/09/13 09:27:16;;;;;;;;;;;;;;;20.93;77.16;100950.47;4955600;28;19921;-62
2022/09/13 09:29:45;;;;;;;;;;;;;;;21.00;77.21;100951.19;4955697;28;19986;-62
2022/09/13 09:32:22;;;;;;;;;;;;;;;21.07;77.25;100949.31;4971812;28;19914;-62
2022/09/13 09:34:53;;;;;;;;;;;;;;;21.15;76.76;100955.38;4972302;28;19965;-62
2022/09/13 09:37:20;;;;;;;;;;;;;;;21.21;76.91;100959.69;4972965;28;20001;-62
2022/09/13 09:39:45;;;;;;;;;;;;;;;21.27;76.51;100957.78;4972957;28;19965;-62
2022/09/13 09:42:16;;;;;;;;;;;;;;;21.31;76.28;100962.13;4972629;28;19917;-62
2022/09/13 09:44:43;;;;;;;;;;;;;;;21.41;76.42;100956.66;4971849;28;19921;-63
2022/09/13 09:47:14;;;;;;;;;;;;;;;21.46;76.22;100960.06;4971316;28;19918;-62
2022/09/13 09:52:28;;;;;;;;;;;;;;;21.61;76.53;100956.25;4971537;28;19940;-63
2022/09/13 09:54:58;;;;;;;;;;;;;;;21.69;76.54;100955.19;4972556;28;20289;-62
2022/09/13 09:57:43;;;;;;;;;;;;;;;21.76;76.55;100957.75;4972235;28;20270;-65
2022/09/13 10:00:12;;;;;;;;;;;;;;;21.82;75.99;100960.25;4972911;28;19968;-65
2022/09/13 10:02:42;;;;;;;;;;;;;;;21.88;76.14;100957.47;4971885;28;19973;-65
2022/09/13 10:05:07;;;;;;;;;;;;;;;21.95;76.32;100963.53;4972023;28;19969;-65
2022/09/13 10:07:34;;;;;;;;;;;;;;;22.03;76.26;100961.59;4969739;28;19910;-65
2022/09/13 10:10:02;;;;;;;;;;;;;;;22.10;75.35;100960.53;4972561;28;20378;-65
2022/09/13 10:12:28;;;;;;;;;;;;;;;22.17;75.21;100955.94;4971968;28;19918;-65
2022/09/13 10:15:01;;;;;;;;;;;;;;;22.23;75.61;100948.72;4972028;28;20336;-65
2022/09/13 10:17:27;;;;;;;;;;;;;;;22.31;75.38;100951.19;4971738;28;19920;-65
2022/09/13 10:19:54;;;;;;;;;;;;;;;22.38;75.65;100946.66;4971075;28;19918;-65
2022/09/13 10:22:20;;;;;;;;;;;;;;;22.48;76.02;100948.19;4954238;28;19965;-65
2022/09/13 10:24:45;;;;;;;;;;;;;;;22.58;75.45;100939.06;4973031;28;19918;-65
2022/09/13 10:27:22;;;;;;;;;;;;;;;22.67;75.59;100943.28;4968463;28;20008;-62
2022/09/13 10:29:51;;;;;;;;;;;;;;;22.74;75.27;100950.19;4971790;28;20420;-62
2022/09/13 10:32:18;;;;;;;;;;;;;;;22.79;74.76;100946.53;4972464;28;20499;-62
2022/09/13 10:34:44;;;;;;;;;;;;;;;22.83;74.87;100945.56;4972731;28;20137;-62
2022/09/13 10:37:29;;;;;;;;;;;;;;;22.84;74.83;100947.28;4972394;28;20309;-62
2022/09/13 10:39:54;;;;;;;;;;;;;;;22.86;74.04;100942.81;4971914;28;19960;-62
2022/09/13 10:42:22;;;;;;;;;;;;;;;22.88;74.49;100949.84;4972238;28;19909;-62
2022/09/13 10:45:06;;;;;;;;;;;;;;;22.87;73.85;100942.78;4972767;28;19913;-62
2022/09/13 10:47:42;;;;;;;;;;;;;;;22.88;73.76;100951.59;4972372;28;19910;-62
2022/09/13 10:50:17;;;;;;;;;;;;;;;22.87;73.69;100950.75;4972403;28;20374;-61
2022/09/13 10:52:44;;;;;;;;;;;;;;;22.89;73.77;100948.03;4972352;28;20204;-61
2022/09/13 10:55:18;;;;;;;;;;;;;;;22.90;73.60;100947.13;4972022;28;19918;-62
2022/09/13 10:57:53;;;;;;;;;;;;;;;22.90;73.60;100939.16;4971760;28;19920;-65
2022/09/13 11:00:21;;;;;;;;;;;;;;;22.91;73.16;100936.47;4971803;28;20296;-65
2022/09/13 11:02:49;;;;;;;;;;;;;;;22.92;72.82;100934.66;4971226;28;20055;-65
2022/09/13 11:05:20;;;;;;;;;;;;;;;22.94;73.77;100927.53;4971861;28;19918;-65
2022/09/13 11:08:00;;;;;;;;;;;;;;;22.98;73.85;100923.00;4970755;28;19918;-65
2022/09/13 11:10:39;;;;;;;;;;;;;;;22.99;73.66;100922.97;4972254;28;19914;-65
2022/09/13 11:13:20;;;;;;;;;;;;;;;23.00;73.61;100919.41;4968811;28;19973;-65
2022/09/13 11:15:56;;;;;;;;;;;;;;;23.03;73.15;100914.00;4959706;28;20386;-65
2022/09/13 11:18:21;;;;;;;;;;;;;;;23.07;73.49;100914.78;4971056;28;19926;-65
2022/09/13 11:20:52;;;;;;;;;;;;;;;23.11;73.50;100915.63;4970913;28;19918;-65
2022/09/13 11:23:27;;;;;;;;;;;;;;;23.15;73.57;100912.81;4969888;28;19965;-65
2022/09/13 11:26:11;;;;;;;;;;;;;;;23.17;73.23;100908.31;4968009;28;19981;-64
2022/09/13 11:28:55;;;;;;;;;;;;;;;23.21;73.28;100902.00;4967507;28;19918;-62
2022/09/13 11:31:38;;;;;;;;;;;;;;;23.27;73.03;100900.97;4966158;28;19914;-63
2022/09/13 11:34:04;;;;;;;;;;;;;;;23.33;73.34;100900.78;4959809;28;19921;-63
2022/09/13 11:36:45;;;;;;;;;;;;;;;23.38;73.11;100908.66;4966408;28;19929;-63
2022/09/13 11:39:40;;;;;;;;;;;;;;;23.45;72.69;100910.22;4969660;28;19952;-63
2022/09/13 11:42:24;;;;;;;;;;;;;;;23.52;72.46;100902.91;4949510;28;19948;-63
2022/09/13 11:44:49;;;;;;;;;;;;;;;23.59;72.77;100913.34;4968042;28;19918;-63
2022/09/13 11:47:23;;;;;;;;;;;;;;;23.67;72.41;100910.44;4960248;28;19929;-62
2022/09/13 11:49:49;;;;;;;;;;;;;;;23.75;72.09;100902.22;4970162;28;20301;-62
2022/09/13 11:52:20;;;;;;;;;;;;;;;23.82;71.98;100905.59;4970213;28;19933;-62
2022/09/13 11:54:46;;;;;;;;;;;;;;;23.90;71.19;100903.59;4968701;28;20004;-62
2022/09/13 11:57:32;;;;;;;;;;;;;;;23.96;70.78;100904.25;4967464;28;19924;-62
2022/09/13 12:00:00;;;;;;;;;;;;;;;24.06;71.40;100901.31;4970891;28;20381;-62
2022/09/13 12:02:28;;;;;;;;;;;;;;;24.14;71.18;100893.94;4969289;28;20021;-62
2022/09/13 12:04:58;;;;;;;;;;;;;;;24.22;70.79;100896.38;4971179;28;19933;-62
2022/09/13 12:07:29;;;;;;;;;;;;;;;24.28;70.63;100896.16;4970205;28;19961;-62
2022/09/13 12:09:59;;;;;;;;;;;;;;;24.33;70.00;100893.34;4970323;28;19914;-62
2022/09/13 12:12:26;;;;;;;;;;;;;;;24.39;70.28;100894.03;4972770;28;19929;-62
2022/09/13 12:14:58;;;;;;;;;;;;;;;24.45;69.77;100895.63;4975076;28;19914;-62
2022/09/13 12:17:26;;;;;;;;;;;;;;;24.49;69.49;100897.22;4973130;28;20074;-62
2022/09/13 12:19:53;;;;;;;;;;;;;;;24.53;69.27;100900.69;4974075;28;19940;-62
2022/09/13 12:22:19;;;;;;;;;;;;;;;24.56;69.32;100897.91;4972463;28;19920;-62
2022/09/13 12:24:53;;;;;;;;;;;;;;;24.60;69.09;100887.13;4973690;28;19914;-63
2022/09/13 12:27:37;;;;;;;;;;;;;;;24.65;69.18;100884.28;4968859;28;20381;-62
2022/09/13 12:30:14;;;;;;;;;;;;;;;24.69;68.94;100890.41;4968335;28;19918;-62
2022/09/13 12:32:43;;;;;;;;;;;;;;;24.69;69.17;100885.06;4956414;28;20030;-62
2022/09/13 12:35:09;;;;;;;;;;;;;;;24.69;69.16;100874.41;4974172;28;19918;-62
2022/09/13 12:37:34;;;;;;;;;;;;;;;24.69;68.92;100874.41;4973789;28;20413;-62
2022/09/13 12:40:10;;;;;;;;;;;;;;;24.68;69.23;100881.53;4974587;28;19952;-63
2022/09/13 12:42:35;;;;;;;;;;;;;;;24.71;69.31;100878.78;4969201;28;19914;-62
2022/09/13 12:45:10;;;;;;;;;;;;;;;24.75;68.41;100877.75;4963660;28;19920;-63
2022/09/13 12:47:36;;;;;;;;;;;;;;;24.78;68.26;100880.28;4973474;28;19914;-62
2022/09/13 12:50:10;;;;;;;;;;;;;;;24.81;67.70;100877.53;4968639;28;19922;-63